sensor_id;sensor_type;location;lat;lon;timestamp;P1;durP1;ratioP1;P2;durP2;ratioP2
6392;SDS011;3229;42.674;23.282;2022-09-14T00:01:18;4.07;;;3.60;;
6392;SDS011;3229;42.674;23.282;2022-09-14T00:03:50;4.07;;;3.67;;
6392;SDS011;3229;42.674;23.282;2022-09-14T00:06:17;4.30;;;3.70;;
6392;SDS011;3229;42.674;23.282;2022-09-14T00:08:44;4.20;;;3.80;;
6392;SDS011;3229;42.674;23.282;2022-09-14T00:11:14;6.33;;;3.90;;
6392;SDS011;3229;42.674;23.282;2022-09-14T00:13:42;5.50;;;3.97;;
6392;SDS011;3229;42.674;23.282;2022-09-14T00:16:12;4.47;;;3.77;;
6392;SDS011;3229;42.674;23.282;2022-09-14T00:18:40;4.73;;;4.00;;
6392;SDS011;3229;42.674;23.282;2022-09-14T00:21:08;4.70;;;4.30;;
6392;SDS011;3229;42.674;23.282;2022-09-14T00:23:38;5.73;;;4.20;;
6392;SDS011;3229;42.674;23.282;2022-09-14T00:26:07;4.53;;;3.90;;
6392;SDS011;3229;42.674;23.282;2022-09-14T00:28:37;5.33;;;4.20;;
6392;SDS011;3229;42.674;23.282;2022-09-14T00:31:06;12.03;;;4.67;;
6392;SDS011;3229;42.674;23.282;2022-09-14T00:33:35;4.70;;;3.50;;
6392;SDS011;3229;42.674;23.282;2022-09-14T00:36:03;5.93;;;4.53;;
6392;SDS011;3229;42.674;23.282;2022-09-14T00:38:31;9.60;;;3.97;;
6392;SDS011;3229;42.674;23.282;2022-09-14T00:40:59;4.60;;;4.20;;
6392;SDS011;3229;42.674;23.282;2022-09-14T00:43:26;4.80;;;4.30;;
6392;SDS011;3229;42.674;23.282;2022-09-14T00:45:53;4.60;;;4.20;;
6392;SDS011;3229;42.674;23.282;2022-09-14T00:48:21;4.70;;;4.23;;
6392;SDS011;3229;42.674;23.282;2022-09-14T00:50:51;5.93;;;4.20;;
6392;SDS011;3229;42.674;23.282;2022-09-14T00:53:19;4.40;;;3.77;;
6392;SDS011;3229;42.674;23.282;2022-09-14T00:55:46;4.83;;;4.13;;
6392;SDS011;3229;42.674;23.282;2022-09-14T00:58:15;6.13;;;4.40;;
6392;SDS011;3229;42.674;23.282;2022-09-14T01:00:42;5.67;;;3.83;;
6392;SDS011;3229;42.674;23.282;2022-09-14T01:03:09;8.10;;;4.27;;
6392;SDS011;3229;42.674;23.282;2022-09-14T01:05:40;4.37;;;3.97;;
6392;SDS011;3229;42.674;23.282;2022-09-14T01:08:41;10.30;;;4.00;;
6392;SDS011;3229;42.674;23.282;2022-09-14T01:11:25;6.17;;;4.20;;
6392;SDS011;3229;42.674;23.282;2022-09-14T01:14:06;4.50;;;4.10;;
6392;SDS011;3229;42.674;23.282;2022-09-14T01:16:39;4.40;;;3.77;;
6392;SDS011;3229;42.674;23.282;2022-09-14T01:19:14;5.60;;;4.50;;
6392;SDS011;3229;42.674;23.282;2022-09-14T01:21:48;5.03;;;4.20;;
6392;SDS011;3229;42.674;23.282;2022-09-14T01:24:20;5.10;;;4.60;;
6392;SDS011;3229;42.674;23.282;2022-09-14T01:27:16;4.30;;;3.67;;
6392;SDS011;3229;42.674;23.282;2022-09-14T01:29:49;7.70;;;4.33;;
6392;SDS011;3229;42.674;23.282;2022-09-14T01:32:24;4.47;;;4.07;;
6392;SDS011;3229;42.674;23.282;2022-09-14T01:34:55;4.73;;;4.33;;
6392;SDS011;3229;42.674;23.282;2022-09-14T01:37:27;4.30;;;3.90;;
6392;SDS011;3229;42.674;23.282;2022-09-14T01:40:00;4.77;;;4.33;;
6392;SDS011;3229;42.674;23.282;2022-09-14T01:42:32;5.03;;;3.90;;
6392;SDS011;3229;42.674;23.282;2022-09-14T01:45:00;6.47;;;4.23;;
6392;SDS011;3229;42.674;23.282;2022-09-14T01:47:33;5.30;;;4.37;;
6392;SDS011;3229;42.674;23.282;2022-09-14T01:50:07;4.33;;;4.03;;
6392;SDS011;3229;42.674;23.282;2022-09-14T01:52:41;5.30;;;4.80;;
6392;SDS011;3229;42.674;23.282;2022-09-14T01:55:12;6.67;;;4.63;;
6392;SDS011;3229;42.674;23.282;2022-09-14T01:57:45;6.93;;;4.33;;
6392;SDS011;3229;42.674;23.282;2022-09-14T02:00:17;4.90;;;4.50;;
6392;SDS011;3229;42.674;23.282;2022-09-14T02:02:48;5.23;;;4.40;;
6392;SDS011;3229;42.674;23.282;2022-09-14T02:05:19;4.50;;;4.10;;
6392;SDS011;3229;42.674;23.282;2022-09-14T02:07:53;4.90;;;4.47;;
6392;SDS011;3229;42.674;23.282;2022-09-14T02:10:21;6.50;;;4.53;;
6392;SDS011;3229;42.674;23.282;2022-09-14T02:12:51;5.57;;;4.97;;
6392;SDS011;3229;42.674;23.282;2022-09-14T02:15:20;4.77;;;4.33;;
6392;SDS011;3229;42.674;23.282;2022-09-14T02:17:50;5.17;;;4.43;;
6392;SDS011;3229;42.674;23.282;2022-09-14T02:20:19;10.17;;;4.40;;
6392;SDS011;3229;42.674;23.282;2022-09-14T02:22:49;6.73;;;4.67;;
6392;SDS011;3229;42.674;23.282;2022-09-14T02:25:18;6.73;;;4.40;;
6392;SDS011;3229;42.674;23.282;2022-09-14T02:27:45;6.27;;;5.27;;
6392;SDS011;3229;42.674;23.282;2022-09-14T02:30:14;4.40;;;4.00;;
6392;SDS011;3229;42.674;23.282;2022-09-14T02:32:45;4.93;;;4.23;;
6392;SDS011;3229;42.674;23.282;2022-09-14T02:35:22;5.40;;;4.77;;
6392;SDS011;3229;42.674;23.282;2022-09-14T02:37:58;5.17;;;4.63;;
6392;SDS011;3229;42.674;23.282;2022-09-14T02:40:31;5.57;;;4.10;;
6392;SDS011;3229;42.674;23.282;2022-09-14T02:43:05;5.40;;;4.30;;
6392;SDS011;3229;42.674;23.282;2022-09-14T02:45:42;8.50;;;4.70;;
6392;SDS011;3229;42.674;23.282;2022-09-14T02:48:19;8.07;;;4.63;;
6392;SDS011;3229;42.674;23.282;2022-09-14T02:50:55;5.23;;;4.73;;
6392;SDS011;3229;42.674;23.282;2022-09-14T02:53:33;5.60;;;4.80;;
6392;SDS011;3229;42.674;23.282;2022-09-14T02:56:05;5.83;;;4.57;;
6392;SDS011;3229;42.674;23.282;2022-09-14T02:58:35;6.20;;;4.57;;
6392;SDS011;3229;42.674;23.282;2022-09-14T03:01:06;5.43;;;4.93;;
6392;SDS011;3229;42.674;23.282;2022-09-14T03:03:36;6.50;;;4.87;;
6392;SDS011;3229;42.674;23.282;2022-09-14T03:06:03;5.20;;;4.57;;
6392;SDS011;3229;42.674;23.282;2022-09-14T03:08:31;8.57;;;4.77;;
6392;SDS011;3229;42.674;23.282;2022-09-14T03:10:58;6.13;;;3.80;;
6392;SDS011;3229;42.674;23.282;2022-09-14T03:13:25;9.37;;;4.83;;
6392;SDS011;3229;42.674;23.282;2022-09-14T03:15:52;6.97;;;5.03;;
6392;SDS011;3229;42.674;23.282;2022-09-14T03:18:21;8.63;;;5.43;;
6392;SDS011;3229;42.674;23.282;2022-09-14T03:20:47;5.13;;;4.63;;
6392;SDS011;3229;42.674;23.282;2022-09-14T03:23:14;5.57;;;4.97;;
6392;SDS011;3229;42.674;23.282;2022-09-14T03:25:42;6.10;;;4.37;;
6392;SDS011;3229;42.674;23.282;2022-09-14T03:28:10;5.33;;;4.83;;
6392;SDS011;3229;42.674;23.282;2022-09-14T03:30:37;5.80;;;5.00;;
6392;SDS011;3229;42.674;23.282;2022-09-14T03:33:04;7.67;;;4.83;;
6392;SDS011;3229;42.674;23.282;2022-09-14T03:35:32;8.97;;;4.83;;
6392;SDS011;3229;42.674;23.282;2022-09-14T03:37:59;6.30;;;4.80;;
6392;SDS011;3229;42.674;23.282;2022-09-14T03:40:27;5.00;;;4.50;;
6392;SDS011;3229;42.674;23.282;2022-09-14T03:42:54;11.63;;;4.87;;
6392;SDS011;3229;42.674;23.282;2022-09-14T03:45:21;5.23;;;4.63;;
6392;SDS011;3229;42.674;23.282;2022-09-14T03:47:48;7.07;;;5.10;;
6392;SDS011;3229;42.674;23.282;2022-09-14T03:50:16;7.27;;;5.00;;
6392;SDS011;3229;42.674;23.282;2022-09-14T03:52:45;5.50;;;5.00;;
6392;SDS011;3229;42.674;23.282;2022-09-14T03:55:12;6.70;;;4.90;;
6392;SDS011;3229;42.674;23.282;2022-09-14T03:57:39;5.33;;;4.83;;
6392;SDS011;3229;42.674;23.282;2022-09-14T04:00:06;7.27;;;5.47;;
6392;SDS011;3229;42.674;23.282;2022-09-14T04:02:34;6.37;;;4.70;;
6392;SDS011;3229;42.674;23.282;2022-09-14T04:05:01;9.70;;;6.50;;
6392;SDS011;3229;42.674;23.282;2022-09-14T04:07:28;6.70;;;5.03;;
6392;SDS011;3229;42.674;23.282;2022-09-14T04:09:56;6.77;;;6.00;;
6392;SDS011;3229;42.674;23.282;2022-09-14T04:12:23;16.07;;;5.50;;
6392;SDS011;3229;42.674;23.282;2022-09-14T04:14:50;8.80;;;5.07;;
6392;SDS011;3229;42.674;23.282;2022-09-14T04:17:17;7.67;;;6.10;;
6392;SDS011;3229;42.674;23.282;2022-09-14T04:19:44;9.23;;;5.50;;
6392;SDS011;3229;42.674;23.282;2022-09-14T04:22:11;9.23;;;4.97;;
6392;SDS011;3229;42.674;23.282;2022-09-14T04:24:38;13.27;;;6.37;;
6392;SDS011;3229;42.674;23.282;2022-09-14T04:27:06;10.53;;;6.00;;
6392;SDS011;3229;42.674;23.282;2022-09-14T04:29:33;13.50;;;6.30;;
6392;SDS011;3229;42.674;23.282;2022-09-14T04:32:00;5.90;;;5.30;;
6392;SDS011;3229;42.674;23.282;2022-09-14T04:34:28;7.20;;;5.50;;
6392;SDS011;3229;42.674;23.282;2022-09-14T04:36:55;8.67;;;5.50;;
6392;SDS011;3229;42.674;23.282;2022-09-14T04:39:22;6.70;;;5.20;;
6392;SDS011;3229;42.674;23.282;2022-09-14T04:41:50;9.50;;;5.60;;
6392;SDS011;3229;42.674;23.282;2022-09-14T04:44:18;16.97;;;6.47;;
6392;SDS011;3229;42.674;23.282;2022-09-14T04:46:46;9.87;;;6.10;;
6392;SDS011;3229;42.674;23.282;2022-09-14T04:49:14;8.37;;;5.83;;
6392;SDS011;3229;42.674;23.282;2022-09-14T04:51:43;10.97;;;5.60;;
6392;SDS011;3229;42.674;23.282;2022-09-14T04:54:12;9.20;;;6.00;;
6392;SDS011;3229;42.674;23.282;2022-09-14T04:56:40;9.67;;;6.20;;
6392;SDS011;3229;42.674;23.282;2022-09-14T04:59:07;12.47;;;6.37;;
6392;SDS011;3229;42.674;23.282;2022-09-14T05:01:36;11.27;;;6.57;;
6392;SDS011;3229;42.674;23.282;2022-09-14T05:04:04;9.23;;;7.03;;
6392;SDS011;3229;42.674;23.282;2022-09-14T05:06:33;11.17;;;6.53;;
6392;SDS011;3229;42.674;23.282;2022-09-14T05:09:02;16.70;;;7.23;;
6392;SDS011;3229;42.674;23.282;2022-09-14T05:11:31;12.30;;;6.67;;
6392;SDS011;3229;42.674;23.282;2022-09-14T05:14:00;14.10;;;6.20;;
6392;SDS011;3229;42.674;23.282;2022-09-14T05:16:28;13.50;;;6.73;;
6392;SDS011;3229;42.674;23.282;2022-09-14T05:18:58;16.77;;;7.30;;
6392;SDS011;3229;42.674;23.282;2022-09-14T05:21:27;13.83;;;6.37;;
6392;SDS011;3229;42.674;23.282;2022-09-14T05:23:56;8.50;;;5.83;;
6392;SDS011;3229;42.674;23.282;2022-09-14T05:26:24;17.83;;;6.83;;
6392;SDS011;3229;42.674;23.282;2022-09-14T05:28:53;12.57;;;6.70;;
6392;SDS011;3229;42.674;23.282;2022-09-14T05:31:21;7.37;;;6.20;;
6392;SDS011;3229;42.674;23.282;2022-09-14T05:33:49;9.73;;;6.90;;
6392;SDS011;3229;42.674;23.282;2022-09-14T05:36:18;10.90;;;7.37;;
6392;SDS011;3229;42.674;23.282;2022-09-14T05:38:45;9.47;;;6.97;;
6392;SDS011;3229;42.674;23.282;2022-09-14T05:41:13;12.97;;;7.37;;
6392;SDS011;3229;42.674;23.282;2022-09-14T05:43:41;12.60;;;6.70;;
6392;SDS011;3229;42.674;23.282;2022-09-14T05:46:09;12.37;;;6.87;;
6392;SDS011;3229;42.674;23.282;2022-09-14T05:48:37;11.03;;;6.67;;
6392;SDS011;3229;42.674;23.282;2022-09-14T05:51:06;14.33;;;6.53;;
6392;SDS011;3229;42.674;23.282;2022-09-14T05:53:37;9.17;;;5.57;;
6392;SDS011;3229;42.674;23.282;2022-09-14T05:56:05;16.67;;;6.00;;
6392;SDS011;3229;42.674;23.282;2022-09-14T05:58:34;11.33;;;6.53;;
6392;SDS011;3229;42.674;23.282;2022-09-14T06:01:05;10.30;;;6.13;;
6392;SDS011;3229;42.674;23.282;2022-09-14T06:03:34;9.10;;;6.37;;
6392;SDS011;3229;42.674;23.282;2022-09-14T06:06:01;12.50;;;5.40;;
6392;SDS011;3229;42.674;23.282;2022-09-14T06:08:29;9.07;;;5.40;;
6392;SDS011;3229;42.674;23.282;2022-09-14T06:11:01;6.57;;;5.90;;
6392;SDS011;3229;42.674;23.282;2022-09-14T06:13:29;10.70;;;5.93;;
6392;SDS011;3229;42.674;23.282;2022-09-14T06:15:59;10.03;;;6.57;;
6392;SDS011;3229;42.674;23.282;2022-09-14T06:18:28;9.43;;;6.97;;
6392;SDS011;3229;42.674;23.282;2022-09-14T06:20:56;7.67;;;5.63;;
6392;SDS011;3229;42.674;23.282;2022-09-14T06:23:22;8.43;;;5.70;;
6392;SDS011;3229;42.674;23.282;2022-09-14T06:25:51;8.77;;;5.77;;
6392;SDS011;3229;42.674;23.282;2022-09-14T06:28:20;12.20;;;6.23;;
6392;SDS011;3229;42.674;23.282;2022-09-14T06:30:47;5.63;;;4.77;;
6392;SDS011;3229;42.674;23.282;2022-09-14T06:33:14;6.37;;;4.50;;
6392;SDS011;3229;42.674;23.282;2022-09-14T06:35:41;8.13;;;5.10;;
6392;SDS011;3229;42.674;23.282;2022-09-14T06:38:10;5.03;;;4.43;;
6392;SDS011;3229;42.674;23.282;2022-09-14T06:40:38;11.53;;;5.20;;
6392;SDS011;3229;42.674;23.282;2022-09-14T06:43:05;7.28;;;4.88;;
6392;SDS011;3229;42.674;23.282;2022-09-14T06:45:33;6.55;;;4.90;;
6392;SDS011;3229;42.674;23.282;2022-09-14T06:48:01;6.93;;;4.47;;
6392;SDS011;3229;42.674;23.282;2022-09-14T06:50:28;5.65;;;4.40;;
6392;SDS011;3229;42.674;23.282;2022-09-14T06:52:55;8.15;;;3.90;;
6392;SDS011;3229;42.674;23.282;2022-09-14T06:55:21;7.53;;;4.40;;
6392;SDS011;3229;42.674;23.282;2022-09-14T06:57:48;9.75;;;4.80;;
6392;SDS011;3229;42.674;23.282;2022-09-14T07:00:15;6.25;;;4.45;;
6392;SDS011;3229;42.674;23.282;2022-09-14T07:02:44;8.15;;;4.75;;
6392;SDS011;3229;42.674;23.282;2022-09-14T07:05:11;7.07;;;4.68;;
6392;SDS011;3229;42.674;23.282;2022-09-14T07:07:39;9.20;;;4.43;;
6392;SDS011;3229;42.674;23.282;2022-09-14T07:10:06;7.80;;;4.25;;
6392;SDS011;3229;42.674;23.282;2022-09-14T07:12:33;7.15;;;4.03;;
6392;SDS011;3229;42.674;23.282;2022-09-14T07:15:00;5.50;;;4.22;;
6392;SDS011;3229;42.674;23.282;2022-09-14T07:17:28;8.20;;;4.38;;
6392;SDS011;3229;42.674;23.282;2022-09-14T07:19:57;6.70;;;4.40;;
6392;SDS011;3229;42.674;23.282;2022-09-14T07:22:23;9.00;;;4.25;;
6392;SDS011;3229;42.674;23.282;2022-09-14T07:24:50;4.97;;;4.15;;
6392;SDS011;3229;42.674;23.282;2022-09-14T07:27:17;5.85;;;4.60;;
6392;SDS011;3229;42.674;23.282;2022-09-14T07:29:44;5.75;;;3.97;;
6392;SDS011;3229;42.674;23.282;2022-09-14T07:32:11;5.50;;;4.70;;
6392;SDS011;3229;42.674;23.282;2022-09-14T07:34:38;10.68;;;4.80;;
6392;SDS011;3229;42.674;23.282;2022-09-14T07:37:06;4.57;;;4.13;;
6392;SDS011;3229;42.674;23.282;2022-09-14T07:39:33;10.13;;;3.95;;
6392;SDS011;3229;42.674;23.282;2022-09-14T07:42:00;7.47;;;4.75;;
6392;SDS011;3229;42.674;23.282;2022-09-14T07:44:27;7.35;;;5.25;;
6392;SDS011;3229;42.674;23.282;2022-09-14T07:46:54;7.15;;;4.88;;
6392;SDS011;3229;42.674;23.282;2022-09-14T07:49:20;7.45;;;4.68;;
6392;SDS011;3229;42.674;23.282;2022-09-14T07:51:47;6.50;;;4.47;;
6392;SDS011;3229;42.674;23.282;2022-09-14T07:54:16;7.60;;;4.93;;
6392;SDS011;3229;42.674;23.282;2022-09-14T07:56:44;7.45;;;4.50;;
6392;SDS011;3229;42.674;23.282;2022-09-14T07:59:12;5.55;;;4.40;;
6392;SDS011;3229;42.674;23.282;2022-09-14T08:01:41;5.82;;;3.70;;
6392;SDS011;3229;42.674;23.282;2022-09-14T08:04:07;5.47;;;4.43;;
6392;SDS011;3229;42.674;23.282;2022-09-14T08:06:34;14.35;;;4.35;;
6392;SDS011;3229;42.674;23.282;2022-09-14T08:09:04;5.28;;;4.43;;
6392;SDS011;3229;42.674;23.282;2022-09-14T08:11:34;8.23;;;4.75;;
6392;SDS011;3229;42.674;23.282;2022-09-14T08:14:03;6.78;;;4.30;;
6392;SDS011;3229;42.674;23.282;2022-09-14T08:16:31;5.55;;;3.72;;
6392;SDS011;3229;42.674;23.282;2022-09-14T08:19:00;5.28;;;3.70;;
6392;SDS011;3229;42.674;23.282;2022-09-14T08:21:28;4.95;;;4.30;;
6392;SDS011;3229;42.674;23.282;2022-09-14T08:23:57;7.57;;;4.15;;
6392;SDS011;3229;42.674;23.282;2022-09-14T08:26:26;4.90;;;4.10;;
6392;SDS011;3229;42.674;23.282;2022-09-14T08:28:55;8.57;;;4.00;;
6392;SDS011;3229;42.674;23.282;2022-09-14T08:31:25;6.55;;;4.80;;
6392;SDS011;3229;42.674;23.282;2022-09-14T08:33:53;5.05;;;4.45;;
6392;SDS011;3229;42.674;23.282;2022-09-14T08:36:22;6.35;;;4.38;;
6392;SDS011;3229;42.674;23.282;2022-09-14T08:38:49;4.60;;;4.05;;
6392;SDS011;3229;42.674;23.282;2022-09-14T08:41:18;7.70;;;3.90;;
6392;SDS011;3229;42.674;23.282;2022-09-14T08:43:52;9.50;;;4.00;;
6392;SDS011;3229;42.674;23.282;2022-09-14T08:46:24;6.57;;;4.32;;
6392;SDS011;3229;42.674;23.282;2022-09-14T08:48:54;4.80;;;4.28;;
6392;SDS011;3229;42.674;23.282;2022-09-14T08:51:22;8.93;;;4.70;;
6392;SDS011;3229;42.674;23.282;2022-09-14T08:53:52;9.85;;;4.55;;
6392;SDS011;3229;42.674;23.282;2022-09-14T08:56:23;6.90;;;4.65;;
6392;SDS011;3229;42.674;23.282;2022-09-14T08:58:55;7.13;;;3.88;;
6392;SDS011;3229;42.674;23.282;2022-09-14T09:01:36;9.20;;;4.32;;
6392;SDS011;3229;42.674;23.282;2022-09-14T09:04:15;4.97;;;4.05;;
6392;SDS011;3229;42.674;23.282;2022-09-14T09:06:57;13.15;;;4.40;;
6392;SDS011;3229;42.674;23.282;2022-09-14T09:09:32;6.07;;;3.83;;
6392;SDS011;3229;42.674;23.282;2022-09-14T09:12:05;5.45;;;4.18;;
6392;SDS011;3229;42.674;23.282;2022-09-14T09:14:38;8.10;;;4.30;;
6392;SDS011;3229;42.674;23.282;2022-09-14T09:17:12;11.25;;;4.53;;
6392;SDS011;3229;42.674;23.282;2022-09-14T09:19:47;7.47;;;4.28;;
6392;SDS011;3229;42.674;23.282;2022-09-14T09:22:29;8.27;;;4.47;;
6392;SDS011;3229;42.674;23.282;2022-09-14T09:25:00;9.88;;;4.25;;
6392;SDS011;3229;42.674;23.282;2022-09-14T09:27:30;6.63;;;5.10;;
6392;SDS011;3229;42.674;23.282;2022-09-14T09:29:57;6.18;;;5.13;;
6392;SDS011;3229;42.674;23.282;2022-09-14T09:32:25;8.85;;;4.47;;
6392;SDS011;3229;42.674;23.282;2022-09-14T09:34:52;6.35;;;4.18;;
6392;SDS011;3229;42.674;23.282;2022-09-14T09:37:19;6.32;;;4.38;;
6392;SDS011;3229;42.674;23.282;2022-09-14T09:39:49;9.73;;;4.75;;
6392;SDS011;3229;42.674;23.282;2022-09-14T09:42:19;8.73;;;5.05;;
6392;SDS011;3229;42.674;23.282;2022-09-14T09:44:55;10.43;;;4.75;;
6392;SDS011;3229;42.674;23.282;2022-09-14T09:47:29;10.35;;;4.53;;
6392;SDS011;3229;42.674;23.282;2022-09-14T09:49:58;8.20;;;4.30;;
6392;SDS011;3229;42.674;23.282;2022-09-14T09:52:27;7.72;;;5.25;;
6392;SDS011;3229;42.674;23.282;2022-09-14T09:54:55;5.72;;;4.60;;
6392;SDS011;3229;42.674;23.282;2022-09-14T09:57:27;6.20;;;4.75;;
6392;SDS011;3229;42.674;23.282;2022-09-14T10:00:09;9.93;;;4.22;;
6392;SDS011;3229;42.674;23.282;2022-09-14T10:02:46;10.77;;;4.65;;
6392;SDS011;3229;42.674;23.282;2022-09-14T10:05:18;6.60;;;4.32;;
6392;SDS011;3229;42.674;23.282;2022-09-14T10:07:51;6.93;;;4.47;;
6392;SDS011;3229;42.674;23.282;2022-09-14T10:10:23;8.73;;;4.55;;
6392;SDS011;3229;42.674;23.282;2022-09-14T10:12:52;8.52;;;4.82;;
6392;SDS011;3229;42.674;23.282;2022-09-14T10:15:22;5.47;;;4.38;;
6392;SDS011;3229;42.674;23.282;2022-09-14T10:18:03;7.82;;;4.55;;
6392;SDS011;3229;42.674;23.282;2022-09-14T10:20:34;9.70;;;4.20;;
6392;SDS011;3229;42.674;23.282;2022-09-14T10:23:21;5.57;;;4.18;;
6392;SDS011;3229;42.674;23.282;2022-09-14T10:25:51;6.47;;;3.72;;
6392;SDS011;3229;42.674;23.282;2022-09-14T10:28:22;9.93;;;4.50;;
6392;SDS011;3229;42.674;23.282;2022-09-14T10:30:53;6.97;;;3.90;;
6392;SDS011;3229;42.674;23.282;2022-09-14T10:33:27;5.65;;;3.83;;
6392;SDS011;3229;42.674;23.282;2022-09-14T10:35:57;4.30;;;3.15;;
6392;SDS011;3229;42.674;23.282;2022-09-14T10:38:32;2.15;;;1.80;;
6392;SDS011;3229;42.674;23.282;2022-09-14T10:46:53;1.90;;;1.75;;
6392;SDS011;3229;42.674;23.282;2022-09-14T10:49:37;2.75;;;1.70;;
6392;SDS011;3229;42.674;23.282;2022-09-14T10:52:15;2.17;;;1.98;;
6392;SDS011;3229;42.674;23.282;2022-09-14T10:58:00;2.20;;;2.00;;
6392;SDS011;3229;42.674;23.282;2022-09-14T11:00:49;3.88;;;2.00;;
6392;SDS011;3229;42.674;23.282;2022-09-14T11:03:30;3.70;;;1.88;;
6392;SDS011;3229;42.674;23.282;2022-09-14T11:06:21;1.70;;;1.60;;
6392;SDS011;3229;42.674;23.282;2022-09-14T11:08:55;4.50;;;2.28;;
6392;SDS011;3229;42.674;23.282;2022-09-14T11:11:29;3.63;;;1.83;;
6392;SDS011;3229;42.674;23.282;2022-09-14T11:14:06;5.57;;;1.70;;
6392;SDS011;3229;42.674;23.282;2022-09-14T11:16:46;2.05;;;1.80;;
6392;SDS011;3229;42.674;23.282;2022-09-14T11:19:34;4.05;;;2.30;;
6392;SDS011;3229;42.674;23.282;2022-09-14T11:22:10;2.22;;;1.92;;
6392;SDS011;3229;42.674;23.282;2022-09-14T11:24:47;4.45;;;2.45;;
6392;SDS011;3229;42.674;23.282;2022-09-14T11:27:20;2.25;;;2.05;;
6392;SDS011;3229;42.674;23.282;2022-09-14T11:29:51;3.30;;;2.95;;
6392;SDS011;3229;42.674;23.282;2022-09-14T11:32:23;4.25;;;1.98;;
6392;SDS011;3229;42.674;23.282;2022-09-14T11:34:57;3.40;;;2.42;;
6392;SDS011;3229;42.674;23.282;2022-09-14T11:37:34;2.75;;;2.35;;
6392;SDS011;3229;42.674;23.282;2022-09-14T11:40:07;2.15;;;2.00;;
6392;SDS011;3229;42.674;23.282;2022-09-14T11:42:42;2.80;;;2.60;;
6392;SDS011;3229;42.674;23.282;2022-09-14T11:45:18;3.10;;;2.17;;
6392;SDS011;3229;42.674;23.282;2022-09-14T11:47:52;2.60;;;2.40;;
6392;SDS011;3229;42.674;23.282;2022-09-14T11:50:25;4.10;;;1.92;;
6392;SDS011;3229;42.674;23.282;2022-09-14T11:53:01;3.38;;;3.08;;
6392;SDS011;3229;42.674;23.282;2022-09-14T11:55:34;6.22;;;3.88;;
6392;SDS011;3229;42.674;23.282;2022-09-14T11:58:06;3.95;;;2.53;;
6392;SDS011;3229;42.674;23.282;2022-09-14T12:03:51;4.28;;;2.20;;
6392;SDS011;3229;42.674;23.282;2022-09-14T12:06:48;2.53;;;2.33;;
6392;SDS011;3229;42.674;23.282;2022-09-14T12:12:29;2.10;;;1.90;;
6392;SDS011;3229;42.674;23.282;2022-09-14T12:15:01;1.40;;;1.30;;
6392;SDS011;3229;42.674;23.282;2022-09-14T12:17:37;2.10;;;1.60;;
6392;SDS011;3229;42.674;23.282;2022-09-14T12:25:56;1.95;;;1.80;;
6392;SDS011;3229;42.674;23.282;2022-09-14T12:28:45;3.53;;;1.85;;
6392;SDS011;3229;42.674;23.282;2022-09-14T12:31:30;1.80;;;1.70;;
6392;SDS011;3229;42.674;23.282;2022-09-14T12:34:13;2.65;;;2.45;;
6392;SDS011;3229;42.674;23.282;2022-09-14T12:36:55;3.03;;;2.25;;
6392;SDS011;3229;42.674;23.282;2022-09-14T12:39:26;3.33;;;2.03;;
6392;SDS011;3229;42.674;23.282;2022-09-14T12:41:59;5.90;;;2.10;;
6392;SDS011;3229;42.674;23.282;2022-09-14T12:44:30;2.22;;;1.75;;
6392;SDS011;3229;42.674;23.282;2022-09-14T12:50:15;4.30;;;2.10;;
6392;SDS011;3229;42.674;23.282;2022-09-14T12:52:45;4.13;;;1.90;;
6392;SDS011;3229;42.674;23.282;2022-09-14T12:55:29;3.92;;;2.20;;
6392;SDS011;3229;42.674;23.282;2022-09-14T12:58:08;2.38;;;2.15;;
6392;SDS011;3229;42.674;23.282;2022-09-14T13:00:49;3.08;;;2.17;;
6392;SDS011;3229;42.674;23.282;2022-09-14T13:06:15;2.25;;;2.05;;
6392;SDS011;3229;42.674;23.282;2022-09-14T13:08:44;8.18;;;1.85;;
6392;SDS011;3229;42.674;23.282;2022-09-14T13:11:19;1.98;;;1.83;;
6392;SDS011;3229;42.674;23.282;2022-09-14T13:13:50;2.00;;;1.90;;
6392;SDS011;3229;42.674;23.282;2022-09-14T13:16:26;2.17;;;2.03;;
6392;SDS011;3229;42.674;23.282;2022-09-14T13:19:00;1.65;;;1.55;;
6392;SDS011;3229;42.674;23.282;2022-09-14T13:21:29;1.70;;;1.60;;
6392;SDS011;3229;42.674;23.282;2022-09-14T13:23:56;3.22;;;1.80;;
6392;SDS011;3229;42.674;23.282;2022-09-14T13:26:24;5.05;;;1.92;;
6392;SDS011;3229;42.674;23.282;2022-09-14T13:28:54;2.42;;;2.20;;
6392;SDS011;3229;42.674;23.282;2022-09-14T13:31:25;3.95;;;2.13;;
6392;SDS011;3229;42.674;23.282;2022-09-14T13:33:55;1.83;;;1.73;;
6392;SDS011;3229;42.674;23.282;2022-09-14T13:36:24;2.28;;;2.08;;
6392;SDS011;3229;42.674;23.282;2022-09-14T13:38:53;2.50;;;1.90;;
6392;SDS011;3229;42.674;23.282;2022-09-14T13:41:25;1.70;;;1.60;;
6392;SDS011;3229;42.674;23.282;2022-09-14T13:43:55;4.72;;;1.90;;
6392;SDS011;3229;42.674;23.282;2022-09-14T13:46:23;4.47;;;2.33;;
6392;SDS011;3229;42.674;23.282;2022-09-14T13:48:51;1.77;;;1.67;;
6392;SDS011;3229;42.674;23.282;2022-09-14T13:51:21;1.67;;;1.58;;
6392;SDS011;3229;42.674;23.282;2022-09-14T13:53:50;3.95;;;1.90;;
6392;SDS011;3229;42.674;23.282;2022-09-14T13:56:21;2.63;;;2.03;;
6392;SDS011;3229;42.674;23.282;2022-09-14T14:01:42;2.45;;;2.25;;
6392;SDS011;3229;42.674;23.282;2022-09-14T14:04:26;3.35;;;2.10;;
6392;SDS011;3229;42.674;23.282;2022-09-14T14:06:58;4.47;;;2.10;;
6392;SDS011;3229;42.674;23.282;2022-09-14T14:09:36;2.70;;;1.80;;
6392;SDS011;3229;42.674;23.282;2022-09-14T14:12:06;2.45;;;2.13;;
6392;SDS011;3229;42.674;23.282;2022-09-14T14:14:36;2.55;;;2.25;;
6392;SDS011;3229;42.674;23.282;2022-09-14T14:19:51;3.22;;;2.08;;
6392;SDS011;3229;42.674;23.282;2022-09-14T14:22:20;2.70;;;2.05;;
6392;SDS011;3229;42.674;23.282;2022-09-14T14:24:51;3.17;;;1.90;;
6392;SDS011;3229;42.674;23.282;2022-09-14T14:27:24;2.33;;;1.80;;
6392;SDS011;3229;42.674;23.282;2022-09-14T14:29:58;2.00;;;1.80;;
6392;SDS011;3229;42.674;23.282;2022-09-14T14:32:26;3.50;;;2.08;;
6392;SDS011;3229;42.674;23.282;2022-09-14T14:34:55;3.30;;;1.92;;
6392;SDS011;3229;42.674;23.282;2022-09-14T14:37:22;2.30;;;2.10;;
6392;SDS011;3229;42.674;23.282;2022-09-14T14:39:49;3.03;;;2.00;;
6392;SDS011;3229;42.674;23.282;2022-09-14T14:42:16;2.10;;;1.90;;
6392;SDS011;3229;42.674;23.282;2022-09-14T14:44:43;2.78;;;1.90;;
6392;SDS011;3229;42.674;23.282;2022-09-14T14:47:12;1.85;;;1.70;;
6392;SDS011;3229;42.674;23.282;2022-09-14T14:49:40;2.08;;;1.85;;
6392;SDS011;3229;42.674;23.282;2022-09-14T14:52:08;2.58;;;1.90;;
6392;SDS011;3229;42.674;23.282;2022-09-14T14:54:35;2.45;;;1.58;;
6392;SDS011;3229;42.674;23.282;2022-09-14T14:57:05;3.30;;;2.28;;
6392;SDS011;3229;42.674;23.282;2022-09-14T14:59:32;1.95;;;1.85;;
6392;SDS011;3229;42.674;23.282;2022-09-14T15:01:58;4.22;;;1.60;;
6392;SDS011;3229;42.674;23.282;2022-09-14T15:04:27;1.98;;;1.80;;
6392;SDS011;3229;42.674;23.282;2022-09-14T15:06:55;2.15;;;1.92;;
6392;SDS011;3229;42.674;23.282;2022-09-14T15:09:22;1.95;;;1.75;;
6392;SDS011;3229;42.674;23.282;2022-09-14T15:11:51;3.60;;;2.80;;
6392;SDS011;3229;42.674;23.282;2022-09-14T15:14:21;3.00;;;2.25;;
6392;SDS011;3229;42.674;23.282;2022-09-14T15:16:51;2.60;;;2.13;;
6392;SDS011;3229;42.674;23.282;2022-09-14T15:19:21;7.10;;;3.40;;
6392;SDS011;3229;42.674;23.282;2022-09-14T15:21:50;5.55;;;2.90;;
6392;SDS011;3229;42.674;23.282;2022-09-14T15:24:17;6.97;;;5.70;;
6392;SDS011;3229;42.674;23.282;2022-09-14T15:26:44;4.75;;;3.10;;
6392;SDS011;3229;42.674;23.282;2022-09-14T15:29:11;5.95;;;3.28;;
6392;SDS011;3229;42.674;23.282;2022-09-14T15:31:38;4.93;;;4.07;;
6392;SDS011;3229;42.674;23.282;2022-09-14T15:34:05;6.68;;;5.15;;
6392;SDS011;3229;42.674;23.282;2022-09-14T15:36:39;18.65;;;8.70;;
6392;SDS011;3229;42.674;23.282;2022-09-14T15:39:10;6.97;;;5.18;;
6392;SDS011;3229;42.674;23.282;2022-09-14T15:41:39;4.05;;;3.28;;
6392;SDS011;3229;42.674;23.282;2022-09-14T15:44:06;3.25;;;2.58;;
6392;SDS011;3229;42.674;23.282;2022-09-14T15:46:35;3.00;;;2.70;;
6392;SDS011;3229;42.674;23.282;2022-09-14T15:49:03;5.53;;;4.05;;
6392;SDS011;3229;42.674;23.282;2022-09-14T15:51:31;10.88;;;8.50;;
6392;SDS011;3229;42.674;23.282;2022-09-14T15:53:59;9.55;;;6.40;;